NorthWeedRWIS Atmospheric Data: 04/18/2019 Summary  Detailed Graphs  Station List

  Temperature     Wind Precipitation Visibility
Timestamp Air Wet
Bulb
Dew-
point
24-hr
Max
24-hr
Min
Relative
Humidity
Atmospheric
Pressure
Avg
Speed
Avg
Dir
Spot
Speed
Spot
Dir
Max
Speed
Max
Dir
  Rate Situation Start End 1 hr 3 hr 6 hr 12 hr 24 hr   Situation
Date Time °F °F °F °F °F % in Hg mph ° mph ° mph ° Y/N in/hr text Date Time Date Time in in in in in mi text
04/18/2019 12:03 AM 48.02 44.06 39.74 70.34 33.44 72.0 Not Reported 4.47 SE 4.47 SE 4.92 SE No 0.000 No Precipitation 04/15/2019 07:40 PM 04/15/2019 07:45 PM 0.000 0.000 0.000 0.000 0.000 Not Reported Not Reported
04/18/2019 12:18 AM 47.30 43.52 39.38 70.34 33.44 73.0 Not Reported 4.47 SE 5.14 SE 5.14 SE No 0.000 No Precipitation 04/15/2019 07:40 PM 04/15/2019 07:45 PM 0.000 0.000 0.000 0.000 0.000 Not Reported Not Reported
04/18/2019 12:33 AM 46.76 42.98 39.02 70.34 33.44 74.0 Not Reported 4.47 SE 4.70 SE 5.14 SE No 0.000 No Precipitation 04/15/2019 07:40 PM 04/15/2019 07:45 PM 0.000 0.000 0.000 0.000 0.000 Not Reported Not Reported
04/18/2019 12:48 AM 46.22 42.80 39.02 70.34 33.44 75.0 Not Reported 4.03 SE 4.25 SE 4.92 SE No 0.000 No Precipitation 04/15/2019 07:40 PM 04/15/2019 07:45 PM 0.000 0.000 0.000 0.000 0.000 Not Reported Not Reported
04/18/2019 01:03 AM 45.68 42.44 38.84 70.34 33.44 76.0 Not Reported 4.70 SE 4.70 SE 5.14 SE No 0.000 No Precipitation 04/15/2019 07:40 PM 04/15/2019 07:45 PM 0.000 0.000 0.000 0.000 0.000 Not Reported Not Reported
04/18/2019 01:18 AM 45.14 41.90 38.30 70.34 33.44 76.0 Not Reported 4.03 SE 3.58 SE 4.92 SE No 0.000 No Precipitation 04/15/2019 07:40 PM 04/15/2019 07:45 PM 0.000 0.000 0.000 0.000 0.000 Not Reported Not Reported
04/18/2019 01:33 AM 45.32 42.08 38.48 70.34 33.44 76.0 Not Reported 4.47 SE 4.03 SE 4.70 SE No 0.000 No Precipitation 04/15/2019 07:40 PM 04/15/2019 07:45 PM 0.000 0.000 0.000 0.000 0.000 Not Reported Not Reported
04/18/2019 01:48 AM 44.78 41.72 38.12 70.34 33.44 77.0 Not Reported 4.03 SE 4.25 SE 4.70 SE No 0.000 No Precipitation 04/15/2019 07:40 PM 04/15/2019 07:45 PM 0.000 0.000 0.000 0.000 0.000 Not Reported Not Reported
04/18/2019 02:03 AM 44.06 41.18 37.76 70.34 33.44 78.0 Not Reported 4.47 SE 4.03 SE 4.92 SE No 0.000 No Precipitation 04/15/2019 07:40 PM 04/15/2019 07:45 PM 0.000 0.000 0.000 0.000 0.000 Not Reported Not Reported
04/18/2019 02:18 AM 43.70 41.00 37.76 70.34 33.44 79.0 Not Reported 4.25 SE 4.25 SE 4.47 SE No 0.000 No Precipitation 04/15/2019 07:40 PM 04/15/2019 07:45 PM 0.000 0.000 0.000 0.000 0.000 Not Reported Not Reported
04/18/2019 02:33 AM 43.34 40.82 37.58 70.34 33.44 80.0 Not Reported 4.47 SE 4.47 SE 5.14 SE No 0.000 No Precipitation 04/15/2019 07:40 PM 04/15/2019 07:45 PM 0.000 0.000 0.000 0.000 0.000 Not Reported Not Reported
04/18/2019 02:48 AM 43.16 40.64 37.58 70.34 33.44 80.0 Not Reported 4.47 SE 4.25 SE 4.92 SE No 0.000 No Precipitation 04/15/2019 07:40 PM 04/15/2019 07:45 PM 0.000 0.000 0.000 0.000 0.000 Not Reported Not Reported
04/18/2019 03:03 AM 42.80 40.28 37.40 70.34 33.44 81.0 Not Reported 4.70 SE 5.14 SE 5.14 SE No 0.000 No Precipitation 04/15/2019 07:40 PM 04/15/2019 07:45 PM 0.000 0.000 0.000 0.000 0.000 Not Reported Not Reported
04/18/2019 03:18 AM 42.62 40.28 37.40 70.34 33.44 81.0 Not Reported 4.47 SE 4.70 SE 5.14 SE No 0.000 No Precipitation 04/15/2019 07:40 PM 04/15/2019 07:45 PM 0.000 0.000 0.000 0.000 0.000 Not Reported Not Reported
04/18/2019 03:33 AM 42.80 40.28 37.22 70.34 33.44 80.0 Not Reported 5.14 SE 4.47 SE 5.82 SE No 0.000 No Precipitation 04/15/2019 07:40 PM 04/15/2019 07:45 PM 0.000 0.000 0.000 0.000 0.000 Not Reported Not Reported
04/18/2019 03:48 AM 42.08 39.92 37.22 70.34 33.44 82.0 Not Reported 4.92 SE 5.14 SE 5.37 SE No 0.000 No Precipitation 04/15/2019 07:40 PM 04/15/2019 07:45 PM 0.000 0.000 0.000 0.000 0.000 Not Reported Not Reported
04/18/2019 04:03 AM 41.72 39.56 37.04 70.34 33.44 83.0 Not Reported 4.70 SE 4.03 SE 5.14 SE No 0.000 No Precipitation 04/15/2019 07:40 PM 04/15/2019 07:45 PM 0.000 0.000 0.000 0.000 0.000 Not Reported Not Reported
04/18/2019 04:18 AM 41.72 39.56 36.86 70.34 33.44 82.0 Not Reported 4.70 SE 4.70 SE 4.70 SE No 0.000 No Precipitation 04/15/2019 07:40 PM 04/15/2019 07:45 PM 0.000 0.000 0.000 0.000 0.000 Not Reported Not Reported
04/18/2019 04:33 AM 41.72 39.56 36.86 70.34 33.44 83.0 Not Reported 4.47 SE 4.70 SE 5.14 SE No 0.000 No Precipitation 04/15/2019 07:40 PM 04/15/2019 07:45 PM 0.000 0.000 0.000 0.000 0.000 Not Reported Not Reported
04/18/2019 04:48 AM 41.72 39.56 37.22 70.34 33.44 83.0 Not Reported 4.92 SE 4.92 SE 4.92 SE No 0.000 No Precipitation 04/15/2019 07:40 PM 04/15/2019 07:45 PM 0.000 0.000 0.000 0.000 0.000 Not Reported Not Reported
04/18/2019 05:03 AM 41.00 39.20 36.86 70.34 33.44 84.0 Not Reported 4.47 SE 4.25 SE 5.14 SE No 0.000 No Precipitation 04/15/2019 07:40 PM 04/15/2019 07:45 PM 0.000 0.000 0.000 0.000 0.000 Not Reported Not Reported
04/18/2019 05:18 AM 40.82 39.02 36.68 70.34 33.44 84.0 Not Reported 4.47 SE 4.70 SE 4.47 SE No 0.000 No Precipitation 04/15/2019 07:40 PM 04/15/2019 07:45 PM 0.000 0.000 0.000 0.000 0.000 Not Reported Not Reported
04/18/2019 05:33 AM 40.46 38.66 36.32 70.34 33.44 85.0 Not Reported 4.70 SE 5.14 SE 5.37 SE No 0.000 No Precipitation 04/15/2019 07:40 PM 04/15/2019 07:45 PM 0.000 0.000 0.000 0.000 0.000 Not Reported Not Reported
04/18/2019 05:48 AM 40.46 38.66 36.32 70.34 33.44 85.0 Not Reported 4.70 SE 4.70 SE 5.14 SE No 0.000 No Precipitation 04/15/2019 07:40 PM 04/15/2019 07:45 PM 0.000 0.000 0.000 0.000 0.000 Not Reported Not Reported
04/18/2019 06:03 AM 40.10 38.48 36.50 70.34 33.44 86.0 Not Reported 3.58 SE 4.03 SE 4.47 SE No 0.000 No Precipitation 04/15/2019 07:40 PM 04/15/2019 07:45 PM 0.000 0.000 0.000 0.000 0.000 Not Reported Not Reported
04/18/2019 06:18 AM 40.46 38.66 36.50 70.34 33.44 85.0 Not Reported 4.92 SE 5.14 SE 4.92 SE No 0.000 No Precipitation 04/15/2019 07:40 PM 04/15/2019 07:45 PM 0.000 0.000 0.000 0.000 0.000 Not Reported Not Reported
04/18/2019 06:33 AM 39.56 37.94 36.14 70.34 33.44 87.0 Not Reported 4.47 SE 4.03 SE 4.70 SE No 0.000 No Precipitation 04/15/2019 07:40 PM 04/15/2019 07:45 PM 0.000 0.000 0.000 0.000 0.000 Not Reported Not Reported
04/18/2019 06:48 AM 40.10 38.30 36.14 70.34 33.44 85.0 Not Reported 3.80 SE 4.25 SE 4.70 SE No 0.000 No Precipitation 04/15/2019 07:40 PM 04/15/2019 07:45 PM 0.000 0.000 0.000 0.000 0.000 Not Reported Not Reported
04/18/2019 07:03 AM 39.20 37.58 35.60 70.34 33.44 87.0 Not Reported 4.25 SE 4.25 SE 5.14 SE No 0.000 No Precipitation 04/15/2019 07:40 PM 04/15/2019 07:45 PM 0.000 0.000 0.000 0.000 0.000 Not Reported Not Reported
04/18/2019 07:18 AM 39.02 37.58 35.78 70.34 33.44 88.0 Not Reported 4.70 SE 4.70 SE 4.47 SE No 0.000 No Precipitation 04/15/2019 07:40 PM 04/15/2019 07:45 PM 0.000 0.000 0.000 0.000 0.000 Not Reported Not Reported
04/18/2019 07:33 AM 39.38 37.94 35.96 70.34 33.44 86.0 Not Reported 4.70 SE 4.70 SE 4.70 SE No 0.000 No Precipitation 04/15/2019 07:40 PM 04/15/2019 07:45 PM 0.000 0.000 0.000 0.000 0.000 Not Reported Not Reported
04/18/2019 07:48 AM 39.02 37.58 35.60 70.34 33.44 87.0 Not Reported 4.47 SE 4.25 SE 4.92 SE No 0.000 No Precipitation 04/15/2019 07:40 PM 04/15/2019 07:45 PM 0.000 0.000 0.000 0.000 0.000 Not Reported Not Reported
04/18/2019 08:03 AM 39.38 37.94 36.14 70.34 33.44 87.0 Not Reported 4.92 SE 4.92 SE 4.70 SE No 0.000 No Precipitation 04/15/2019 07:40 PM 04/15/2019 07:45 PM 0.000 0.000 0.000 0.000 0.000 Not Reported Not Reported
04/18/2019 08:18 AM 40.28 38.48 36.32 70.34 33.44 85.0 Not Reported 3.58 SE 3.13 SE 5.37 SE No 0.000 No Precipitation 04/15/2019 07:40 PM 04/15/2019 07:45 PM 0.000 0.000 0.000 0.000 0.000 Not Reported Not Reported
04/18/2019 08:33 AM 42.08 39.74 37.04 70.34 33.44 82.0 Not Reported 3.36 SE 3.80 SE 5.59 SE No 0.000 No Precipitation 04/15/2019 07:40 PM 04/15/2019 07:45 PM 0.000 0.000 0.000 0.000 0.000 Not Reported Not Reported
04/18/2019 08:48 AM 44.42 41.36 37.94 70.34 33.44 77.0 Not Reported 3.80 SE 3.80 SE 5.14 E No 0.000 No Precipitation 04/15/2019 07:40 PM 04/15/2019 07:45 PM 0.000 0.000 0.000 0.000 0.000 Not Reported Not Reported
04/18/2019 09:03 AM 46.76 43.16 39.02 70.34 33.44 74.0 Not Reported 1.79 SE 3.36 SE 5.14 SE No 0.000 No Precipitation 04/15/2019 07:40 PM 04/15/2019 07:45 PM 0.000 0.000 0.000 0.000 0.000 Not Reported Not Reported
04/18/2019 09:18 AM 49.64 44.96 40.10 70.34 33.44 69.0 Not Reported 2.24 SE 1.12 SE 4.03 SE No 0.000 No Precipitation 04/15/2019 07:40 PM 04/15/2019 07:45 PM 0.000 0.000 0.000 0.000 0.000 Not Reported Not Reported
04/18/2019 09:33 AM 52.16 46.76 41.36 70.34 33.44 66.0 Not Reported 0.45 N 1.12 SE 3.36 SE No 0.000 No Precipitation 04/15/2019 07:40 PM 04/15/2019 07:45 PM 0.000 0.000 0.000 0.000 0.000 Not Reported Not Reported
04/18/2019 09:48 AM 52.70 46.58 40.28 70.34 33.44 62.0 Not Reported 1.79 NW 1.57 NW 2.24 E No 0.000 No Precipitation 04/15/2019 07:40 PM 04/15/2019 07:45 PM 0.000 0.000 0.000 0.000 0.000 Not Reported Not Reported
04/18/2019 10:03 AM 54.14 47.66 41.36 70.34 33.44 62.0 Not Reported 0.67 NW 2.46 N 1.79 NW No 0.000 No Precipitation 04/15/2019 07:40 PM 04/15/2019 07:45 PM 0.000 0.000 0.000 0.000 0.000 Not Reported Not Reported
04/18/2019 10:18 AM 55.22 48.20 41.54 70.34 33.44 59.0 Not Reported 2.01 NW 1.34 NW 3.13 NW No 0.000 No Precipitation 04/15/2019 07:40 PM 04/15/2019 07:45 PM 0.000 0.000 0.000 0.000 0.000 Not Reported Not Reported
04/18/2019 10:33 AM 56.48 48.92 41.54 70.34 33.44 57.0 Not Reported 1.79 W 0.89 NW 4.03 W No 0.000 No Precipitation 04/15/2019 07:40 PM 04/15/2019 07:45 PM 0.000 0.000 0.000 0.000 0.000 Not Reported Not Reported
04/18/2019 10:48 AM 58.10 50.00 42.44 70.34 33.44 55.0 Not Reported 2.46 W 2.01 W 4.03 W No 0.000 No Precipitation 04/15/2019 07:40 PM 04/15/2019 07:45 PM 0.000 0.000 0.000 0.000 0.000 Not Reported Not Reported
04/18/2019 11:03 AM 59.18 50.18 41.90 70.34 33.44 52.0 Not Reported 1.34 NW 3.36 W 4.03 W No 0.000 No Precipitation 04/15/2019 07:40 PM 04/15/2019 07:45 PM 0.000 0.000 0.000 0.000 0.000 Not Reported Not Reported
04/18/2019 11:18 AM 59.72 50.90 43.16 70.34 33.44 53.0 Not Reported 2.24 NW 1.34 NW 4.25 N No 0.000 No Precipitation 04/15/2019 07:40 PM 04/15/2019 07:45 PM 0.000 0.000 0.000 0.000 0.000 Not Reported Not Reported
04/18/2019 11:33 AM 60.08 50.72 42.26 70.34 33.44 51.0 Not Reported 1.79 W 2.91 NW 4.47 NW No 0.000 No Precipitation 04/15/2019 07:40 PM 04/15/2019 07:45 PM 0.000 0.000 0.000 0.000 0.000 Not Reported Not Reported
04/18/2019 11:48 AM 62.96 51.44 41.00 70.34 33.44 44.0 Not Reported 2.68 NW 2.91 NW 4.25 NW No 0.000 No Precipitation 04/15/2019 07:40 PM 04/15/2019 07:45 PM 0.000 0.000 0.000 0.000 0.000 Not Reported Not Reported
04/18/2019 12:03 PM 62.24 51.26 40.82 70.34 33.44 45.0 Not Reported 1.79 NW 5.14 W 4.47 N No 0.000 No Precipitation 04/15/2019 07:40 PM 04/15/2019 07:45 PM 0.000 0.000 0.000 0.000 0.000 Not Reported Not Reported
04/18/2019 12:18 PM 64.58 52.88 42.44 70.34 33.44 44.0 Not Reported 2.01 W 2.01 NW 5.14 W No 0.000 No Precipitation 04/15/2019 07:40 PM 04/15/2019 07:45 PM 0.000 0.000 0.000 0.000 0.000 Not Reported Not Reported
04/18/2019 12:33 PM 63.68 51.62 40.46 70.34 33.44 42.0 Not Reported 4.47 NW 4.92 W 4.70 SW No 0.000 No Precipitation 04/15/2019 07:40 PM 04/15/2019 07:45 PM 0.000 0.000 0.000 0.000 0.000 Not Reported Not Reported
04/18/2019 12:48 PM 65.48 53.60 43.70 70.34 33.44 45.0 Not Reported 4.03 W 4.03 NW 5.37 SW No 0.000 No Precipitation 04/15/2019 07:40 PM 04/15/2019 07:45 PM 0.000 0.000 0.000 0.000 0.000 Not Reported Not Reported
04/18/2019 01:03 PM 65.48 53.24 42.26 70.34 33.44 42.0 Not Reported 3.13 NW 3.13 W 3.13 NW No 0.000 No Precipitation 04/15/2019 07:40 PM 04/15/2019 07:45 PM 0.000 0.000 0.000 0.000 0.000 Not Reported Not Reported
04/18/2019 01:18 PM 66.92 53.96 42.80 70.34 33.44 41.0 Not Reported 4.70 NW 5.59 NW 5.59 NW No 0.000 No Precipitation 04/15/2019 07:40 PM 04/15/2019 07:45 PM 0.000 0.000 0.000 0.000 0.000 Not Reported Not Reported
04/18/2019 01:33 PM 67.10 54.50 44.06 70.34 33.44 43.0 Not Reported 3.80 NW 3.13 NW 6.49 NW No 0.000 No Precipitation 04/15/2019 07:40 PM 04/15/2019 07:45 PM 0.000 0.000 0.000 0.000 0.000 Not Reported Not Reported
04/18/2019 01:48 PM 70.16 55.94 44.42 70.34 33.44 39.0 Not Reported 4.03 W 0.45 NW 5.37 W No 0.000 No Precipitation 04/15/2019 07:40 PM 04/15/2019 07:45 PM 0.000 0.000 0.000 0.000 0.000 Not Reported Not Reported
04/18/2019 02:03 PM 69.98 56.66 46.04 70.34 33.44 42.0 Not Reported 3.13 NW 0.45 NW 4.92 N No 0.000 No Precipitation 04/15/2019 07:40 PM 04/15/2019 07:45 PM 0.000 0.000 0.000 0.000 0.000 Not Reported Not Reported
04/18/2019 02:18 PM 70.88 56.66 45.32 70.34 33.44 40.0 Not Reported 4.03 NW 1.34 NW 5.14 N No 0.000 No Precipitation 04/15/2019 07:40 PM 04/15/2019 07:45 PM 0.000 0.000 0.000 0.000 0.000 Not Reported Not Reported
04/18/2019 02:33 PM 71.78 57.38 46.22 70.34 33.44 40.0 Not Reported 5.14 NW 1.12 N 5.14 NW No 0.000 No Precipitation 04/15/2019 07:40 PM 04/15/2019 07:45 PM 0.000 0.000 0.000 0.000 0.000 Not Reported Not Reported
04/18/2019 02:48 PM 73.58 58.28 46.58 70.34 33.44 38.0 Not Reported 2.24 W 1.57 W 6.26 N No 0.000 No Precipitation 04/15/2019 07:40 PM 04/15/2019 07:45 PM 0.000 0.000 0.000 0.000 0.000 Not Reported Not Reported
04/18/2019 03:03 PM 74.12 58.28 46.22 70.34 33.44 36.0 Not Reported 3.13 NW 6.04 N 4.92 N No 0.000 No Precipitation 04/15/2019 07:40 PM 04/15/2019 07:45 PM 0.000 0.000 0.000 0.000 0.000 Not Reported Not Reported
04/18/2019 03:18 PM 73.22 57.56 45.50 70.34 33.44 37.0 Not Reported 4.47 W 4.47 SW 7.61 NW No 0.000 No Precipitation 04/15/2019 07:40 PM 04/15/2019 07:45 PM 0.000 0.000 0.000 0.000 0.000 Not Reported Not Reported
04/18/2019 03:33 PM 73.76 57.92 45.68 70.34 33.44 36.0 Not Reported 4.25 N 3.13 N 6.49 W No 0.000 No Precipitation 04/15/2019 07:40 PM 04/15/2019 07:45 PM 0.000 0.000 0.000 0.000 0.000 Not Reported Not Reported
04/18/2019 03:48 PM 76.82 59.36 46.22 70.34 33.44 33.0 Not Reported 2.24 NW 1.12 NW 5.59 NW No 0.000 No Precipitation 04/15/2019 07:40 PM 04/15/2019 07:45 PM 0.000 0.000 0.000 0.000 0.000 Not Reported Not Reported
04/18/2019 04:03 PM 75.92 59.54 47.48 70.34 33.44 36.0 Not Reported 3.13 NW 4.25 W 4.92 NW No 0.000 No Precipitation 04/15/2019 07:40 PM 04/15/2019 07:45 PM 0.000 0.000 0.000 0.000 0.000 Not Reported Not Reported
04/18/2019 04:18 PM 76.28 58.82 45.68 70.34 33.44 33.0 Not Reported 3.58 W 4.92 W 6.49 NW No 0.000 No Precipitation 04/15/2019 07:40 PM 04/15/2019 07:45 PM 0.000 0.000 0.000 0.000 0.000 Not Reported Not Reported
04/18/2019 04:33 PM 78.80 60.98 48.38 70.34 33.44 34.0 Not Reported 2.46 NW 2.24 NW 4.70 W No 0.000 No Precipitation 04/15/2019 07:40 PM 04/15/2019 07:45 PM 0.000 0.000 0.000 0.000 0.000 Not Reported Not Reported
04/18/2019 04:48 PM 77.00 60.08 47.66 70.34 33.44 35.0 Not Reported 3.13 W 3.58 NW 6.04 NW No 0.000 No Precipitation 04/15/2019 07:40 PM 04/15/2019 07:45 PM 0.000 0.000 0.000 0.000 0.000 Not Reported Not Reported
04/18/2019 05:03 PM 77.90 59.90 46.58 70.34 33.44 33.0 Not Reported 3.80 NW 3.80 NW 5.59 NW No 0.000 No Precipitation 04/15/2019 07:40 PM 04/15/2019 07:45 PM 0.000 0.000 0.000 0.000 0.000 Not Reported Not Reported
04/18/2019 05:18 PM 77.00 59.00 45.14 70.34 33.44 32.0 Not Reported 3.36 NW 5.82 W 5.14 NW No 0.000 No Precipitation 04/15/2019 07:40 PM 04/15/2019 07:45 PM 0.000 0.000 0.000 0.000 0.000 Not Reported Not Reported
04/18/2019 05:33 PM 77.36 59.00 44.78 70.34 33.44 33.0 Not Reported 4.70 NW 3.58 NW 6.49 W No 0.000 No Precipitation 04/15/2019 07:40 PM 04/15/2019 07:45 PM 0.000 0.000 0.000 0.000 0.000 Not Reported Not Reported
04/18/2019 05:48 PM 78.44 59.54 45.14 70.34 33.44 30.0 Not Reported 2.91 NW 4.25 W 5.59 NW No 0.000 No Precipitation 04/15/2019 07:40 PM 04/15/2019 07:45 PM 0.000 0.000 0.000 0.000 0.000 Not Reported Not Reported
04/18/2019 06:03 PM 77.90 59.00 44.42 79.70 38.84 30.0 Not Reported 2.24 W 5.14 NE 4.03 NW No 0.000 No Precipitation 04/15/2019 07:40 PM 04/15/2019 07:45 PM 0.000 0.000 0.000 0.000 0.000 Not Reported Not Reported
04/18/2019 06:18 PM 77.18 59.00 44.96 79.70 38.84 31.0 Not Reported 4.25 W 4.03 W 5.14 NE No 0.000 No Precipitation 04/15/2019 07:40 PM 04/15/2019 07:45 PM 0.000 0.000 0.000 0.000 0.000 Not Reported Not Reported
04/18/2019 06:33 PM 79.16 59.36 43.88 79.70 38.84 28.0 Not Reported 2.68 NW 2.01 NE 4.92 W No 0.000 No Precipitation 04/15/2019 07:40 PM 04/15/2019 07:45 PM 0.000 0.000 0.000 0.000 0.000 Not Reported Not Reported
04/18/2019 06:48 PM 78.62 59.90 45.86 79.70 38.84 31.0 Not Reported 1.12 NW 0.89 SW 5.82 W No 0.000 No Precipitation 04/15/2019 07:40 PM 04/15/2019 07:45 PM 0.000 0.000 0.000 0.000 0.000 Not Reported Not Reported
04/18/2019 07:03 PM 77.36 59.54 46.40 79.70 38.84 32.0 Not Reported 3.13 W 2.24 NW 4.70 NW No 0.000 No Precipitation 04/15/2019 07:40 PM 04/15/2019 07:45 PM 0.000 0.000 0.000 0.000 0.000 Not Reported Not Reported
04/18/2019 07:18 PM 77.18 59.00 45.14 79.70 38.84 31.0 Not Reported 2.91 NW 1.79 NW 5.37 NW No 0.000 No Precipitation 04/15/2019 07:40 PM 04/15/2019 07:45 PM 0.000 0.000 0.000 0.000 0.000 Not Reported Not Reported
04/18/2019 07:33 PM 77.36 59.00 44.78 79.70 38.84 31.0 Not Reported 0.89 W 1.57 NW 3.36 NW No 0.000 No Precipitation 04/15/2019 07:40 PM 04/15/2019 07:45 PM 0.000 0.000 0.000 0.000 0.000 Not Reported Not Reported
04/18/2019 07:48 PM 76.10 58.64 45.14 79.70 38.84 33.0 Not Reported 2.01 W 2.24 NW 2.91 NW No 0.000 No Precipitation 04/15/2019 07:40 PM 04/15/2019 07:45 PM 0.000 0.000 0.000 0.000 0.000 Not Reported Not Reported
04/18/2019 08:03 PM 74.84 57.74 44.24 79.70 38.84 33.0 Not Reported 1.34 W 2.46 W 2.68 NW No 0.000 No Precipitation 04/15/2019 07:40 PM 04/15/2019 07:45 PM 0.000 0.000 0.000 0.000 0.000 Not Reported Not Reported
04/18/2019 08:18 PM 72.50 57.56 45.86 79.70 38.84 38.0 Not Reported 2.01 SW 2.24 SW 3.36 W No 0.000 No Precipitation 04/15/2019 07:40 PM 04/15/2019 07:45 PM 0.000 0.000 0.000 0.000 0.000 Not Reported Not Reported
04/18/2019 08:33 PM 69.80 56.84 46.94 79.70 38.84 43.0 Not Reported 3.13 S 3.36 S 2.46 SW No 0.000 No Precipitation 04/15/2019 07:40 PM 04/15/2019 07:45 PM 0.000 0.000 0.000 0.000 0.000 Not Reported Not Reported
04/18/2019 08:48 PM 67.64 55.94 46.94 79.70 38.84 47.0 Not Reported 2.91 S 1.12 SE 3.58 S No 0.000 No Precipitation 04/15/2019 07:40 PM 04/15/2019 07:45 PM 0.000 0.000 0.000 0.000 0.000 Not Reported Not Reported
04/18/2019 09:03 PM 65.84 54.86 45.86 79.70 38.84 48.0 Not Reported 3.36 S 2.91 S 4.03 SE No 0.000 No Precipitation 04/15/2019 07:40 PM 04/15/2019 07:45 PM 0.000 0.000 0.000 0.000 0.000 Not Reported Not Reported
04/18/2019 09:18 PM 63.86 53.42 44.60 79.70 38.84 49.0 Not Reported 2.24 S 2.46 S 4.92 S No 0.000 No Precipitation 04/15/2019 07:40 PM 04/15/2019 07:45 PM 0.000 0.000 0.000 0.000 0.000 Not Reported Not Reported
04/18/2019 09:33 PM 62.96 51.80 41.54 79.70 38.84 45.0 Not Reported 5.14 S 6.04 S 5.59 S No 0.000 No Precipitation 04/15/2019 07:40 PM 04/15/2019 07:45 PM 0.000 0.000 0.000 0.000 0.000 Not Reported Not Reported
04/18/2019 09:48 PM 62.42 51.62 41.72 79.70 38.84 46.0 Not Reported 3.58 S 2.91 S 6.04 S No 0.000 No Precipitation 04/15/2019 07:40 PM 04/15/2019 07:45 PM 0.000 0.000 0.000 0.000 0.000 Not Reported Not Reported
04/18/2019 10:03 PM 61.34 51.26 41.90 79.70 38.84 48.0 Not Reported 1.57 SE 2.46 S 4.25 SE No 0.000 No Precipitation 04/15/2019 07:40 PM 04/15/2019 07:45 PM 0.000 0.000 0.000 0.000 0.000 Not Reported Not Reported
04/18/2019 10:18 PM 60.62 50.90 41.72 79.70 38.84 49.0 Not Reported 2.46 SE 3.36 SE 3.58 SE No 0.000 No Precipitation 04/15/2019 07:40 PM 04/15/2019 07:45 PM 0.000 0.000 0.000 0.000 0.000 Not Reported Not Reported
04/18/2019 10:33 PM 62.24 51.08 40.82 79.70 38.84 45.0 Not Reported 4.70 SE 4.47 SE 4.70 SE No 0.000 No Precipitation 04/15/2019 07:40 PM 04/15/2019 07:45 PM 0.000 0.000 0.000 0.000 0.000 Not Reported Not Reported
04/18/2019 10:48 PM 61.88 50.90 40.64 79.70 38.84 45.0 Not Reported 4.92 SE 5.59 SE 6.04 SE No 0.000 No Precipitation 04/15/2019 07:40 PM 04/15/2019 07:45 PM 0.000 0.000 0.000 0.000 0.000 Not Reported Not Reported
04/18/2019 11:03 PM 62.60 51.08 40.28 79.70 38.84 43.0 Not Reported 5.82 SE 5.59 SE 6.71 SE No 0.000 No Precipitation 04/15/2019 07:40 PM 04/15/2019 07:45 PM 0.000 0.000 0.000 0.000 0.000 Not Reported Not Reported
04/18/2019 11:18 PM 63.32 51.08 39.20 79.70 38.84 41.0 Not Reported 5.14 SE 5.82 S 6.93 SE No 0.000 No Precipitation 04/15/2019 07:40 PM 04/15/2019 07:45 PM 0.000 0.000 0.000 0.000 0.000 Not Reported Not Reported
04/18/2019 11:33 PM 63.86 51.08 38.84 79.70 38.84 39.0 Not Reported 6.26 SE 6.26 SE 8.05 SE No 0.000 No Precipitation 04/15/2019 07:40 PM 04/15/2019 07:45 PM 0.000 0.000 0.000 0.000 0.000 Not Reported Not Reported
04/18/2019 11:48 PM 63.14 50.54 38.12 79.70 38.84 39.0 Not Reported 5.14 SE 4.03 SE 8.28 SE No 0.000 No Precipitation 04/15/2019 07:40 PM 04/15/2019 07:45 PM 0.000 0.000 0.000 0.000 0.000 Not Reported Not Reported